createdAt,value
2022-12-31T00:00:33.830Z,98207.95
2022-12-31T00:03:21.634Z,98205.22
2022-12-31T00:05:49.554Z,98206.70
2022-12-31T00:08:17.359Z,98207.57
2022-12-31T00:10:45.305Z,98203.65
2022-12-31T00:13:13.332Z,98204.73
2022-12-31T00:15:41.960Z,98210.40
2022-12-31T00:18:10.139Z,98216.34
2022-12-31T00:20:41.933Z,98216.17
2022-12-31T00:23:11.168Z,98221.11
2022-12-31T00:25:39.025Z,98221.30
2022-12-31T00:28:06.843Z,98227.69
2022-12-31T00:30:35.119Z,98234.52
2022-12-31T00:33:03.072Z,98232.48
2022-12-31T00:35:31.392Z,98236.00
2022-12-31T00:37:59.184Z,98235.13
2022-12-31T00:40:28.641Z,98238.55
2022-12-31T00:42:56.454Z,98237.11
2022-12-31T00:45:24.235Z,98236.86
2022-12-31T00:47:52.015Z,98237.02
2022-12-31T00:50:19.857Z,98238.10
2022-12-31T00:52:47.648Z,98240.83
2022-12-31T00:55:15.521Z,98240.48
2022-12-31T00:57:43.381Z,98240.27
2022-12-31T01:00:11.544Z,98236.98
2022-12-31T01:02:39.566Z,98238.04
2022-12-31T01:05:08.519Z,98239.02
2022-12-31T01:07:37.489Z,98234.30
2022-12-31T01:10:05.786Z,98234.58
2022-12-31T01:12:33.560Z,98236.07
2022-12-31T01:15:01.334Z,98234.91
2022-12-31T01:17:29.492Z,98232.69
2022-12-31T01:19:57.473Z,98237.02
2022-12-31T01:22:25.292Z,98237.41
2022-12-31T01:24:53.162Z,98239.28
2022-12-31T01:27:21.783Z,98237.09
2022-12-31T01:29:49.647Z,98238.09
2022-12-31T01:32:18.622Z,98242.02
2022-12-31T01:34:47.425Z,98243.45
2022-12-31T01:37:15.401Z,98245.40
2022-12-31T01:39:43.263Z,98246.98
2022-12-31T01:42:12.108Z,98243.06
2022-12-31T01:44:39.841Z,98238.84
2022-12-31T01:47:13.340Z,98236.32
2022-12-31T01:49:44.575Z,98236.17
2022-12-31T01:52:18.372Z,98237.83
2022-12-31T01:54:52.245Z,98243.92
2022-12-31T01:57:21.132Z,98247.23
2022-12-31T01:59:49.252Z,98242.42
2022-12-31T02:02:17.328Z,98243.73
2022-12-31T02:04:45.269Z,98242.15
2022-12-31T02:07:13.060Z,98248.64
2022-12-31T02:09:42.258Z,98255.37
2022-12-31T02:12:10.388Z,98255.58
2022-12-31T02:14:42.052Z,98255.84
2022-12-31T02:17:12.928Z,98257.50
2022-12-31T02:19:59.829Z,98262.18
2022-12-31T02:22:37.806Z,98260.98
2022-12-31T02:25:08.825Z,98253.58
2022-12-31T02:27:45.219Z,98253.92
2022-12-31T02:30:15.309Z,98253.09
2022-12-31T02:32:55.348Z,98256.71
2022-12-31T02:35:37.512Z,98255.65
2022-12-31T02:38:08.867Z,98252.25
2022-12-31T02:40:37.240Z,98247.17
2022-12-31T02:43:05.279Z,98248.40
2022-12-31T02:45:39.121Z,98249.92
2022-12-31T02:48:06.992Z,98249.61
2022-12-31T02:50:55.551Z,98255.66
2022-12-31T02:53:35.599Z,98252.73
2022-12-31T02:56:11.240Z,98256.45
2022-12-31T02:59:03.813Z,98259.06
2022-12-31T03:01:53.956Z,98257.44
2022-12-31T03:04:36.165Z,98257.77
2022-12-31T03:07:08.764Z,98257.42
2022-12-31T03:09:37.128Z,98256.89
2022-12-31T03:12:25.321Z,98258.92
2022-12-31T03:14:53.479Z,98258.94
2022-12-31T03:17:21.321Z,98256.02
2022-12-31T03:20:07.713Z,98253.63
2022-12-31T03:22:37.472Z,98254.80
2022-12-31T03:25:27.386Z,98255.88
2022-12-31T03:27:55.290Z,98255.87
2022-12-31T03:30:23.950Z,98255.38
2022-12-31T03:32:51.939Z,98256.78
2022-12-31T03:35:20.686Z,98261.70
2022-12-31T03:37:49.853Z,98263.81
2022-12-31T03:40:19.433Z,98269.67
2022-12-31T03:42:47.149Z,98269.69
2022-12-31T03:45:15.501Z,98267.94
2022-12-31T03:47:43.264Z,98266.75
2022-12-31T03:50:11.888Z,98273.98
2022-12-31T03:52:40.063Z,98282.23
2022-12-31T03:55:08.110Z,98291.58
2022-12-31T03:57:36.394Z,98295.22
2022-12-31T04:00:05.650Z,98292.02
2022-12-31T04:02:33.553Z,98295.59
2022-12-31T04:05:01.358Z,98295.34
2022-12-31T04:07:29.252Z,98295.55
2022-12-31T04:09:57.846Z,98302.45
2022-12-31T04:12:25.904Z,98301.77
2022-12-31T04:14:53.701Z,98303.96
2022-12-31T04:17:21.511Z,98303.71
2022-12-31T04:19:49.569Z,98303.12
2022-12-31T04:22:17.655Z,98301.40
2022-12-31T04:24:45.669Z,98303.76
2022-12-31T04:27:13.796Z,98308.20
2022-12-31T04:29:41.603Z,98311.95
2022-12-31T04:32:10.621Z,98311.17
2022-12-31T04:34:38.554Z,98305.79
2022-12-31T04:37:06.625Z,98306.91
2022-12-31T04:39:35.040Z,98306.92
2022-12-31T04:42:02.971Z,98308.34
2022-12-31T04:44:31.758Z,98312.77
2022-12-31T04:46:59.630Z,98315.88
2022-12-31T04:49:27.596Z,98318.23
2022-12-31T04:51:55.414Z,98321.91
2022-12-31T04:54:23.285Z,98314.60
2022-12-31T04:56:51.017Z,98308.38
2022-12-31T04:59:18.798Z,98314.55
2022-12-31T05:01:46.932Z,98315.08
2022-12-31T05:04:14.780Z,98320.20
2022-12-31T05:06:42.510Z,98326.09
2022-12-31T05:09:10.637Z,98328.46
2022-12-31T05:11:39.354Z,98326.28
2022-12-31T05:14:07.203Z,98327.89
2022-12-31T05:16:35.191Z,98329.52
2022-12-31T05:19:05.181Z,98326.95
2022-12-31T05:21:33.146Z,98328.81
2022-12-31T05:24:01.221Z,98330.14
2022-12-31T05:26:29.190Z,98328.52
2022-12-31T05:28:57.261Z,98336.93
2022-12-31T05:31:27.452Z,98340.30
2022-12-31T05:33:55.251Z,98343.45
2022-12-31T05:36:23.006Z,98343.38
2022-12-31T05:38:50.980Z,98342.60
2022-12-31T05:41:18.734Z,98343.56
2022-12-31T05:43:46.547Z,98337.23
2022-12-31T05:46:16.400Z,98331.85
2022-12-31T05:48:44.395Z,98335.59
2022-12-31T05:51:12.261Z,98339.87
2022-12-31T05:53:40.031Z,98340.58
2022-12-31T05:56:08.101Z,98346.65
2022-12-31T05:58:35.968Z,98352.52
2022-12-31T06:01:03.903Z,98352.94
2022-12-31T06:03:32.434Z,98351.20
2022-12-31T06:06:01.444Z,98349.45
2022-12-31T06:08:29.456Z,98351.39
2022-12-31T06:10:57.559Z,98355.27
2022-12-31T06:13:25.339Z,98354.92
2022-12-31T06:15:53.262Z,98353.48
2022-12-31T06:18:21.226Z,98349.70
2022-12-31T06:20:49.122Z,98350.95
2022-12-31T06:23:16.991Z,98354.76
2022-12-31T06:25:44.788Z,98360.71
2022-12-31T06:28:19.688Z,98364.69
2022-12-31T06:30:48.788Z,98367.45
2022-12-31T06:33:16.671Z,98376.23
2022-12-31T06:35:44.519Z,98382.66
2022-12-31T06:38:12.387Z,98387.02
2022-12-31T06:40:40.249Z,98388.21
2022-12-31T06:43:08.235Z,98395.55
2022-12-31T06:45:36.147Z,98391.17
2022-12-31T06:48:04.488Z,98385.26
2022-12-31T06:50:32.747Z,98379.02
2022-12-31T06:53:00.574Z,98386.41
2022-12-31T06:55:29.112Z,98383.85
2022-12-31T06:57:57.088Z,98386.02
2022-12-31T07:00:25.034Z,98386.73
2022-12-31T07:02:55.687Z,98394.30
2022-12-31T07:05:42.208Z,98399.75
2022-12-31T07:08:13.007Z,98401.67
2022-12-31T07:11:00.149Z,98402.44
2022-12-31T07:13:34.135Z,98399.67
2022-12-31T07:16:17.373Z,98401.42
2022-12-31T07:18:48.006Z,98397.58
2022-12-31T07:21:17.088Z,98404.21
2022-12-31T07:23:45.135Z,98403.08
2022-12-31T07:26:25.216Z,98406.64
2022-12-31T07:29:04.734Z,98414.75
2022-12-31T07:31:51.576Z,98419.22
2022-12-31T07:34:19.537Z,98413.92
2022-12-31T07:36:59.422Z,98417.77
2022-12-31T07:39:31.933Z,98422.85
2022-12-31T07:42:31.951Z,98420.23
2022-12-31T07:45:08.597Z,98426.45
2022-12-31T07:47:36.832Z,98420.66
2022-12-31T07:50:05.007Z,98415.56
2022-12-31T07:52:32.932Z,98408.05
2022-12-31T07:55:00.802Z,98409.67
2022-12-31T07:57:34.245Z,98417.73
2022-12-31T08:00:09.579Z,98423.69
2022-12-31T08:02:42.998Z,98423.27
2022-12-31T08:05:14.131Z,98423.84
2022-12-31T08:08:00.583Z,98421.80
2022-12-31T08:10:28.772Z,98414.11
2022-12-31T08:13:00.767Z,98411.63
2022-12-31T08:15:30.725Z,98415.70
2022-12-31T08:17:58.873Z,98412.27
2022-12-31T08:20:27.233Z,98412.77
2022-12-31T08:23:05.404Z,98416.86
2022-12-31T08:25:48.360Z,98423.09
2022-12-31T08:28:31.078Z,98429.49
2022-12-31T08:30:59.163Z,98427.69
2022-12-31T08:33:44.802Z,98425.95
2022-12-31T08:36:31.397Z,98430.44
2022-12-31T08:39:05.347Z,98437.36
2022-12-31T08:41:42.857Z,98437.84
2022-12-31T08:44:11.093Z,98436.69
2022-12-31T08:46:51.374Z,98434.36
2022-12-31T08:49:19.455Z,98426.55
2022-12-31T08:51:47.928Z,98426.09
2022-12-31T08:54:16.233Z,98424.36
2022-12-31T08:56:50.440Z,98424.58
2022-12-31T08:59:34.253Z,98427.31
2022-12-31T09:02:08.632Z,98423.45
2022-12-31T09:04:39.423Z,98415.21
2022-12-31T09:07:09.554Z,98416.45
2022-12-31T09:09:50.819Z,98417.80
2022-12-31T09:12:39.279Z,98415.73
2022-12-31T09:15:18.306Z,98413.88
2022-12-31T09:17:48.156Z,98407.23
2022-12-31T09:20:19.665Z,98406.83
2022-12-31T09:22:47.588Z,98406.77
2022-12-31T09:25:16.906Z,98408.98
2022-12-31T09:27:44.698Z,98416.25
2022-12-31T09:30:13.873Z,98415.70
2022-12-31T09:33:01.329Z,98407.64
2022-12-31T09:35:29.591Z,98405.75
2022-12-31T09:38:05.305Z,98402.80
2022-12-31T09:40:46.451Z,98404.39
2022-12-31T09:43:14.294Z,98406.50
2022-12-31T09:46:00.682Z,98405.86
2022-12-31T09:48:31.566Z,98401.00
2022-12-31T09:51:02.864Z,98400.73
2022-12-31T09:53:42.952Z,98402.35
2022-12-31T09:56:23.096Z,98399.56
2022-12-31T09:59:00.485Z,98401.52
2022-12-31T10:01:37.777Z,98394.92
2022-12-31T10:04:25.092Z,98392.70
2022-12-31T10:07:10.676Z,98395.80
2022-12-31T10:09:56.880Z,98394.46
2022-12-31T10:12:40.100Z,98393.63
2022-12-31T10:15:27.439Z,98391.05
2022-12-31T10:17:59.465Z,98388.08
2022-12-31T10:20:27.261Z,98389.02
2022-12-31T10:23:13.656Z,98391.90
2022-12-31T10:25:54.731Z,98386.77
2022-12-31T10:28:25.471Z,98384.48
2022-12-31T10:31:12.329Z,98390.88
2022-12-31T10:33:43.399Z,98388.75
2022-12-31T10:36:31.074Z,98386.61
2022-12-31T10:38:58.930Z,98381.38
2022-12-31T10:41:38.871Z,98379.67
2022-12-31T10:44:25.516Z,98376.73
2022-12-31T10:47:12.204Z,98380.64
2022-12-31T10:49:46.715Z,98378.89
2022-12-31T10:52:38.196Z,98378.48
2022-12-31T10:55:28.317Z,98383.02
2022-12-31T10:58:15.165Z,98386.66
2022-12-31T11:00:58.576Z,98386.69
2022-12-31T11:03:49.091Z,98384.03
2022-12-31T11:06:39.916Z,98379.29
2022-12-31T11:09:07.733Z,98367.33
2022-12-31T11:11:35.498Z,98355.11
2022-12-31T11:14:16.366Z,98347.09
2022-12-31T11:16:53.553Z,98350.87
2022-12-31T11:19:30.738Z,98348.06
2022-12-31T11:22:04.476Z,98348.33
2022-12-31T11:24:32.473Z,98344.92
2022-12-31T11:27:03.270Z,98349.75
2022-12-31T11:29:31.014Z,98355.37
2022-12-31T11:32:06.672Z,98349.67
2022-12-31T11:34:37.523Z,98348.41
2022-12-31T11:37:17.792Z,98349.70
2022-12-31T11:39:54.645Z,98351.85
2022-12-31T11:42:25.912Z,98354.58
2022-12-31T11:44:58.823Z,98358.91
2022-12-31T11:47:49.704Z,98354.88
2022-12-31T11:50:35.781Z,98350.86
2022-12-31T11:53:12.755Z,98344.11
2022-12-31T11:55:59.285Z,98343.73
2022-12-31T11:58:28.718Z,98337.42
2022-12-31T12:00:59.558Z,98329.75
2022-12-31T12:03:27.980Z,98328.16
2022-12-31T12:05:57.290Z,98328.91
2022-12-31T12:08:26.866Z,98323.48
2022-12-31T12:11:00.777Z,98326.10
2022-12-31T12:13:28.533Z,98325.73
2022-12-31T12:16:00.770Z,98326.77
2022-12-31T12:18:36.250Z,98333.58
2022-12-31T12:21:10.353Z,98335.95
2022-12-31T12:23:39.480Z,98339.27
2022-12-31T12:26:07.960Z,98344.40
2022-12-31T12:28:44.534Z,98344.29
2022-12-31T12:31:24.277Z,98345.13
2022-12-31T12:33:52.488Z,98344.86
2022-12-31T12:36:20.973Z,98349.06
2022-12-31T12:38:49.420Z,98348.60
2022-12-31T12:41:23.509Z,98345.02
2022-12-31T12:44:01.956Z,98348.87
2022-12-31T12:46:41.559Z,98352.16
2022-12-31T12:49:22.767Z,98353.08
2022-12-31T12:51:56.783Z,98348.63
2022-12-31T12:54:43.690Z,98349.14
2022-12-31T12:57:20.376Z,98350.55
2022-12-31T13:00:04.304Z,98353.23
2022-12-31T13:02:54.331Z,98350.92
2022-12-31T13:05:34.260Z,98353.33
2022-12-31T13:08:20.953Z,98357.23
2022-12-31T13:10:48.713Z,98366.98
2022-12-31T13:13:35.340Z,98373.42
2022-12-31T13:16:12.309Z,98372.87
2022-12-31T13:18:53.001Z,98374.56
2022-12-31T13:21:36.137Z,98381.24
2022-12-31T13:24:16.057Z,98381.65
2022-12-31T13:26:54.631Z,98384.70
2022-12-31T13:29:24.653Z,98386.67
2022-12-31T13:31:54.802Z,98384.83
2022-12-31T13:34:25.893Z,98388.09
2022-12-31T13:36:55.724Z,98390.02
2022-12-31T13:39:25.650Z,98393.05
2022-12-31T13:42:00.565Z,98392.70
2022-12-31T13:44:36.340Z,98386.81
2022-12-31T13:47:13.757Z,98386.95
2022-12-31T13:49:48.350Z,98388.61
2022-12-31T13:52:28.864Z,98386.11
2022-12-31T13:55:01.594Z,98384.67
2022-12-31T13:57:39.946Z,98382.20
2022-12-31T14:00:34.069Z,98383.44
2022-12-31T14:03:05.114Z,98388.42
2022-12-31T14:05:44.092Z,98390.24
2022-12-31T14:08:12.271Z,98394.15
2022-12-31T14:10:43.301Z,98398.31
2022-12-31T14:13:34.504Z,98397.71
2022-12-31T14:16:20.059Z,98400.48
2022-12-31T14:18:54.022Z,98408.40
2022-12-31T14:21:25.427Z,98409.81
2022-12-31T14:23:56.066Z,98412.19
2022-12-31T14:26:23.962Z,98414.45
2022-12-31T14:29:12.155Z,98411.80
2022-12-31T14:31:49.333Z,98407.28
2022-12-31T14:34:17.256Z,98407.21
2022-12-31T14:37:00.485Z,98404.40
2022-12-31T14:39:28.249Z,98402.54
2022-12-31T14:41:56.280Z,98400.27
2022-12-31T14:44:30.041Z,98403.05
2022-12-31T14:46:57.991Z,98397.38
2022-12-31T14:49:41.220Z,98391.36
2022-12-31T14:52:08.996Z,98389.14
2022-12-31T14:54:37.779Z,98389.34
2022-12-31T14:57:17.840Z,98388.29
2022-12-31T14:59:58.367Z,98385.15
2022-12-31T15:02:31.087Z,98387.83
2022-12-31T15:05:12.963Z,98391.80
2022-12-31T15:07:46.937Z,98394.48
2022-12-31T15:10:17.917Z,98394.39
2022-12-31T15:12:52.031Z,98400.92
2022-12-31T15:15:26.093Z,98407.70
2022-12-31T15:18:06.096Z,98411.70
2022-12-31T15:20:44.206Z,98409.45
2022-12-31T15:23:13.324Z,98408.36
2022-12-31T15:25:47.006Z,98407.01
2022-12-31T15:28:30.182Z,98406.44
2022-12-31T15:31:19.630Z,98403.46
2022-12-31T15:33:54.124Z,98398.84
2022-12-31T15:36:23.816Z,98401.67
2022-12-31T15:39:03.175Z,98406.51
2022-12-31T15:41:42.950Z,98413.65
2022-12-31T15:44:21.338Z,98425.21
2022-12-31T15:46:52.784Z,98429.56
2022-12-31T15:49:23.824Z,98438.73
2022-12-31T15:51:51.830Z,98444.95
2022-12-31T15:54:41.557Z,98450.13
2022-12-31T15:57:16.238Z,98453.34
2022-12-31T15:59:46.024Z,98453.77
2022-12-31T16:02:32.406Z,98448.33
2022-12-31T16:05:01.112Z,98452.89
2022-12-31T16:07:29.279Z,98456.17
2022-12-31T16:09:59.376Z,98455.84
2022-12-31T16:12:33.156Z,98454.91
2022-12-31T16:15:03.530Z,98446.64
2022-12-31T16:17:31.260Z,98451.31
2022-12-31T16:20:00.249Z,98454.38
2022-12-31T16:22:29.995Z,98452.45
2022-12-31T16:25:29.813Z,98456.09
2022-12-31T16:27:49.988Z,98454.81
2022-12-31T16:30:28.624Z,98458.05
2022-12-31T16:32:59.257Z,98457.57
2022-12-31T16:35:28.754Z,98454.13
2022-12-31T16:38:03.901Z,98455.20
2022-12-31T16:40:31.959Z,98460.58
2022-12-31T16:42:59.931Z,98468.27
2022-12-31T16:45:35.101Z,98476.71
2022-12-31T16:48:20.549Z,98481.43
2022-12-31T16:50:50.640Z,98476.81
2022-12-31T16:53:19.971Z,98479.30
2022-12-31T16:55:53.983Z,98485.44
2022-12-31T16:58:42.126Z,98491.08
2022-12-31T17:01:13.996Z,98494.50
2022-12-31T17:03:45.006Z,98493.81
2022-12-31T17:06:15.379Z,98493.02
2022-12-31T17:08:49.521Z,98494.05
2022-12-31T17:11:36.681Z,98491.05
2022-12-31T17:14:07.848Z,98493.44
2022-12-31T17:16:37.202Z,98491.34
2022-12-31T17:19:05.303Z,98491.19
2022-12-31T17:21:33.586Z,98494.85
2022-12-31T17:24:03.374Z,98491.91
2022-12-31T17:26:32.465Z,98495.45
2022-12-31T17:29:01.419Z,98492.92
2022-12-31T17:31:29.251Z,98498.15
2022-12-31T17:34:12.687Z,98496.58
2022-12-31T17:37:00.709Z,98500.40
2022-12-31T17:39:41.255Z,98510.88
2022-12-31T17:42:12.426Z,98520.95
2022-12-31T17:44:44.004Z,98521.50
2022-12-31T17:47:14.130Z,98523.83
2022-12-31T17:49:45.060Z,98527.85
2022-12-31T17:52:14.458Z,98538.20
2022-12-31T17:54:42.576Z,98543.38
2022-12-31T17:57:17.013Z,98544.92
2022-12-31T17:59:44.752Z,98540.25
2022-12-31T18:02:13.180Z,98532.89
2022-12-31T18:04:42.282Z,98533.27
2022-12-31T18:07:10.044Z,98534.27
2022-12-31T18:09:38.094Z,98527.77
2022-12-31T18:12:07.732Z,98530.30
2022-12-31T18:14:35.585Z,98528.36
2022-12-31T18:17:03.427Z,98518.95
2022-12-31T18:20:02.802Z,98513.09
2022-12-31T18:22:19.276Z,98512.61
2022-12-31T18:24:51.296Z,98509.27
2022-12-31T18:27:19.401Z,98497.29
2022-12-31T18:29:48.136Z,98497.84
2022-12-31T18:32:16.464Z,98489.39
2022-12-31T18:34:44.262Z,98485.59
2022-12-31T18:37:17.902Z,98480.35
2022-12-31T18:39:49.289Z,98480.08
2022-12-31T18:42:17.873Z,98481.22
2022-12-31T18:44:46.244Z,98480.90
2022-12-31T18:47:16.011Z,98489.55
2022-12-31T18:49:45.129Z,98493.77
2022-12-31T18:52:14.000Z,98493.94
2022-12-31T18:54:42.037Z,98492.32
2022-12-31T18:57:13.685Z,98487.86
2022-12-31T18:59:42.273Z,98488.45
2022-12-31T19:02:19.196Z,98485.54
2022-12-31T19:04:48.634Z,98491.52
2022-12-31T19:07:17.159Z,98496.36
2022-12-31T19:09:46.413Z,98493.01
2022-12-31T19:12:15.126Z,98495.23
2022-12-31T19:14:43.297Z,98497.05
2022-12-31T19:19:38.344Z,98495.95
2022-12-31T19:22:06.192Z,98492.36
2022-12-31T19:24:34.200Z,98486.53
2022-12-31T19:27:02.417Z,98488.25
2022-12-31T19:29:30.232Z,98489.86
2022-12-31T19:32:01.051Z,98492.34
2022-12-31T19:34:29.104Z,98494.77
2022-12-31T19:36:57.158Z,98490.91
2022-12-31T19:39:25.025Z,98485.41
2022-12-31T19:41:58.844Z,98486.38
2022-12-31T19:44:27.623Z,98486.53
2022-12-31T19:46:55.403Z,98488.58
2022-12-31T19:49:23.360Z,98491.48
2022-12-31T19:51:51.219Z,98493.47
2022-12-31T19:54:19.145Z,98494.48
2022-12-31T19:56:47.173Z,98501.20
2022-12-31T19:59:14.949Z,98500.98
2022-12-31T20:01:43.037Z,98504.41
2022-12-31T20:04:11.072Z,98500.48
2022-12-31T20:06:39.060Z,98502.89
2022-12-31T20:09:06.903Z,98501.16
2022-12-31T20:11:34.943Z,98500.89
2022-12-31T20:14:02.741Z,98499.15
2022-12-31T20:16:32.084Z,98496.67
2022-12-31T20:19:00.000Z,98497.48
2022-12-31T20:21:28.746Z,98498.55
2022-12-31T20:23:56.631Z,98500.90
2022-12-31T20:26:25.360Z,98496.31
2022-12-31T20:28:53.489Z,98500.25
2022-12-31T20:31:22.861Z,98501.47
2022-12-31T20:33:50.756Z,98501.52
2022-12-31T20:36:18.664Z,98503.95
2022-12-31T20:38:47.044Z,98502.77
2022-12-31T20:41:16.112Z,98500.67
2022-12-31T20:43:44.488Z,98504.36
2022-12-31T20:46:23.343Z,98501.67
2022-12-31T20:48:52.214Z,98501.40
2022-12-31T20:51:20.669Z,98501.08
2022-12-31T20:54:01.875Z,98501.75
2022-12-31T20:56:30.648Z,98506.38
2022-12-31T20:58:58.505Z,98511.92
2022-12-31T21:01:36.307Z,98515.73
2022-12-31T21:04:14.583Z,98514.34
2022-12-31T21:06:42.573Z,98517.08
2022-12-31T21:09:10.438Z,98522.67
2022-12-31T21:11:56.716Z,98528.05
2022-12-31T21:14:24.479Z,98528.63
2022-12-31T21:16:52.306Z,98535.27
2022-12-31T21:19:20.202Z,98541.67
2022-12-31T21:21:48.469Z,98539.67
2022-12-31T21:24:21.817Z,98542.95
2022-12-31T21:26:52.189Z,98545.29
2022-12-31T21:29:19.960Z,98548.92
2022-12-31T21:31:48.027Z,98547.26
2022-12-31T21:34:15.895Z,98546.77
2022-12-31T21:36:43.839Z,98557.30
2022-12-31T21:39:11.651Z,98561.00
2022-12-31T21:41:52.147Z,98562.09
2022-12-31T21:44:21.521Z,98563.83
2022-12-31T21:47:34.698Z,98562.86
2022-12-31T21:49:41.195Z,98571.53
2022-12-31T21:52:27.514Z,98575.30
2022-12-31T21:55:15.228Z,98573.86
2022-12-31T21:58:23.674Z,98574.50
2022-12-31T22:00:51.305Z,98569.24
2022-12-31T22:03:25.026Z,98571.89
2022-12-31T22:05:52.925Z,98573.27
2022-12-31T22:08:21.561Z,98576.59
2022-12-31T22:10:52.818Z,98580.52
2022-12-31T22:13:21.185Z,98582.89
2022-12-31T22:15:52.184Z,98578.60
2022-12-31T22:18:20.693Z,98578.02
2022-12-31T22:20:48.764Z,98581.56
2022-12-31T22:23:16.649Z,98584.14
2022-12-31T22:25:44.541Z,98588.98
2022-12-31T22:28:37.529Z,98590.33
2022-12-31T22:31:00.552Z,98590.60
2022-12-31T22:33:28.622Z,98592.86
2022-12-31T22:35:57.795Z,98594.36
2022-12-31T22:38:26.036Z,98596.77
2022-12-31T22:41:02.744Z,98598.10
2022-12-31T22:43:31.501Z,98590.77
2022-12-31T22:45:59.332Z,98588.02
2022-12-31T22:48:27.067Z,98588.69
2022-12-31T22:50:58.620Z,98591.05
2022-12-31T22:53:26.485Z,98580.95
2022-12-31T22:55:54.960Z,98580.90
2022-12-31T22:58:23.653Z,98582.45
2022-12-31T23:00:52.243Z,98580.41
2022-12-31T23:03:20.131Z,98582.72
2022-12-31T23:05:52.442Z,98585.67
2022-12-31T23:08:23.540Z,98592.40
2022-12-31T23:11:05.437Z,98591.92
2022-12-31T23:13:56.082Z,98597.30
2022-12-31T23:16:43.649Z,98593.84
2022-12-31T23:19:30.456Z,98597.08
2022-12-31T23:22:16.853Z,98600.20
2022-12-31T23:24:44.722Z,98600.18
2022-12-31T23:27:12.594Z,98595.11
2022-12-31T23:29:46.575Z,98593.82
2022-12-31T23:32:16.620Z,98593.52
2022-12-31T23:34:45.011Z,98593.14
2022-12-31T23:37:13.603Z,98596.95
2022-12-31T23:39:42.194Z,98602.50
2022-12-31T23:42:10.103Z,98604.05
2022-12-31T23:44:37.906Z,98612.92
2022-12-31T23:47:05.887Z,98617.16
2022-12-31T23:49:33.737Z,98615.55
2022-12-31T23:52:02.423Z,98619.86
2022-12-31T23:54:30.289Z,98632.05
2022-12-31T23:56:58.124Z,98629.52
2022-12-31T23:59:26.032Z,98623.45
